createdAt,value
2023-04-09T00:00:07.606Z,4.60
2023-04-09T00:01:07.628Z,4.59
2023-04-09T00:02:07.591Z,4.63
2023-04-09T00:03:07.714Z,4.69
2023-04-09T00:04:07.715Z,4.66
2023-04-09T00:05:07.555Z,4.75
2023-04-09T00:06:07.536Z,4.82
2023-04-09T00:07:07.528Z,4.78
2023-04-09T00:08:07.523Z,4.80
2023-04-09T00:09:07.590Z,4.75
2023-04-09T00:10:07.670Z,4.73
2023-04-09T00:11:07.499Z,4.77
2023-04-09T00:12:07.500Z,4.77
2023-04-09T00:13:07.468Z,4.72
2023-04-09T00:14:07.466Z,4.66
2023-04-09T00:15:09.661Z,4.69
2023-04-09T00:16:07.589Z,4.60
2023-04-09T00:17:07.437Z,4.60
2023-04-09T00:18:07.401Z,4.58
2023-04-09T00:19:07.414Z,4.58
2023-04-09T00:20:07.390Z,4.55
2023-04-09T00:21:07.370Z,4.55
2023-04-09T00:22:07.403Z,4.54
2023-04-09T00:23:07.348Z,4.51
2023-04-09T00:24:07.338Z,4.52
2023-04-09T00:25:07.380Z,4.42
2023-04-09T00:26:07.332Z,4.48
2023-04-09T00:27:07.309Z,4.41
2023-04-09T00:28:07.341Z,4.40
2023-04-09T00:29:07.281Z,4.50
2023-04-09T00:30:07.268Z,4.51
2023-04-09T00:31:07.301Z,4.50
2023-04-09T00:32:07.332Z,4.45
2023-04-09T00:33:08.101Z,4.33
2023-04-09T00:34:07.294Z,4.40
2023-04-09T00:35:07.267Z,4.30
2023-04-09T00:36:07.224Z,4.40
2023-04-09T00:37:07.215Z,4.33
2023-04-09T00:38:07.232Z,4.30
2023-04-09T00:39:07.188Z,4.30
2023-04-09T00:40:07.209Z,4.34
2023-04-09T00:41:07.179Z,4.40
2023-04-09T00:42:07.141Z,4.34
2023-04-09T00:43:07.135Z,4.36
2023-04-09T00:44:07.118Z,4.36
2023-04-09T00:45:07.121Z,4.36
2023-04-09T00:46:07.181Z,4.33
2023-04-09T00:47:07.097Z,4.36
2023-04-09T00:48:07.071Z,4.37
2023-04-09T00:49:07.058Z,4.34
2023-04-09T00:50:07.065Z,4.37
2023-04-09T00:51:07.048Z,4.37
2023-04-09T00:52:07.094Z,4.32
2023-04-09T00:53:07.017Z,4.26
2023-04-09T00:54:06.999Z,4.33
2023-04-09T00:55:07.004Z,4.26
2023-04-09T00:56:06.996Z,4.27
2023-04-09T00:57:06.988Z,4.33
2023-04-09T00:58:07.044Z,4.34
2023-04-09T00:59:06.944Z,4.24
2023-04-09T01:00:06.945Z,4.29
2023-04-09T01:01:07.015Z,4.27
2023-04-09T01:02:06.988Z,4.29
2023-04-09T01:03:07.061Z,4.16
2023-04-09T01:04:06.952Z,4.26
2023-04-09T01:05:06.883Z,4.16
2023-04-09T01:06:06.872Z,4.30
2023-04-09T01:07:06.872Z,4.27
2023-04-09T01:08:06.871Z,4.33
2023-04-09T01:09:06.830Z,4.27
2023-04-09T01:10:06.880Z,4.29
2023-04-09T01:11:06.843Z,4.29
2023-04-09T01:12:06.824Z,4.29
2023-04-09T01:13:06.825Z,4.18
2023-04-09T01:14:06.785Z,4.20
2023-04-09T01:15:06.765Z,4.24
2023-04-09T01:16:06.799Z,4.32
2023-04-09T01:17:06.762Z,4.32
2023-04-09T01:18:06.773Z,4.34
2023-04-09T01:19:06.730Z,4.40
2023-04-09T01:20:06.742Z,4.29
2023-04-09T01:21:06.701Z,4.32
2023-04-09T01:22:06.704Z,4.26
2023-04-09T01:23:06.700Z,4.27
2023-04-09T01:24:06.682Z,4.20
2023-04-09T01:25:06.674Z,4.20
2023-04-09T01:26:06.638Z,4.20
2023-04-09T01:27:06.643Z,4.22
2023-04-09T01:28:06.720Z,4.29
2023-04-09T01:29:06.650Z,4.26
2023-04-09T01:30:06.612Z,4.32
2023-04-09T01:31:06.685Z,4.30
2023-04-09T01:32:06.585Z,4.36
2023-04-09T01:33:06.569Z,4.32
2023-04-09T01:34:06.588Z,4.34
2023-04-09T01:35:06.542Z,4.30
2023-04-09T01:36:06.583Z,4.41
2023-04-09T01:37:06.516Z,4.40
2023-04-09T01:38:06.504Z,4.34
2023-04-09T01:39:06.534Z,4.36
2023-04-09T01:40:06.518Z,4.37
2023-04-09T01:41:06.483Z,4.36
2023-04-09T01:42:06.490Z,4.36
2023-04-09T01:43:06.457Z,4.33
2023-04-09T01:44:06.454Z,4.32
2023-04-09T01:45:06.460Z,4.33
2023-04-09T01:46:06.472Z,4.30
2023-04-09T01:47:06.418Z,4.23
2023-04-09T01:48:06.394Z,4.33
2023-04-09T01:49:06.383Z,4.29
2023-04-09T01:50:06.400Z,4.33
2023-04-09T01:51:06.399Z,4.29
2023-04-09T01:52:06.402Z,4.33
2023-04-09T01:53:06.370Z,4.30
2023-04-09T01:54:06.357Z,4.32
2023-04-09T01:55:06.315Z,4.40
2023-04-09T01:56:06.328Z,4.34
2023-04-09T01:57:06.323Z,4.45
2023-04-09T01:58:06.349Z,4.48
2023-04-09T01:59:06.288Z,4.33
2023-04-09T02:00:06.274Z,4.41
2023-04-09T02:01:06.283Z,4.45
2023-04-09T02:02:06.318Z,4.47
2023-04-09T02:03:06.264Z,4.41
2023-04-09T02:04:06.341Z,4.40
2023-04-09T02:05:06.207Z,4.41
2023-04-09T02:06:06.214Z,4.47
2023-04-09T02:07:06.210Z,4.44
2023-04-09T02:08:06.192Z,4.51
2023-04-09T02:09:06.167Z,4.44
2023-04-09T02:10:06.201Z,4.52
2023-04-09T02:11:06.139Z,4.55
2023-04-09T02:12:06.157Z,4.54
2023-04-09T02:13:06.142Z,4.48
2023-04-09T02:14:06.126Z,4.52
2023-04-09T02:15:06.103Z,4.52
2023-04-09T02:16:06.200Z,4.42
2023-04-09T02:17:06.091Z,4.48
2023-04-09T02:18:06.080Z,4.44
2023-04-09T02:19:06.054Z,4.47
2023-04-09T02:20:06.045Z,4.32
2023-04-09T02:21:06.041Z,4.37
2023-04-09T02:22:06.084Z,4.34
2023-04-09T02:23:06.023Z,4.27
2023-04-09T02:24:06.012Z,4.24
2023-04-09T02:25:06.096Z,4.34
2023-04-09T02:26:05.977Z,4.32
2023-04-09T02:27:05.976Z,4.34
2023-04-09T02:28:05.974Z,4.33
2023-04-09T02:29:06.013Z,4.33
2023-04-09T02:30:05.950Z,4.36
2023-04-09T02:31:05.980Z,4.33
2023-04-09T02:32:05.914Z,4.42
2023-04-09T02:33:05.920Z,4.33
2023-04-09T02:34:05.912Z,4.44
2023-04-09T02:35:05.922Z,4.40
2023-04-09T02:36:05.964Z,4.33
2023-04-09T02:37:05.882Z,4.42
2023-04-09T02:38:05.858Z,4.37
2023-04-09T02:39:05.851Z,4.45
2023-04-09T02:40:05.821Z,4.45
2023-04-09T02:41:05.855Z,4.40
2023-04-09T02:42:05.814Z,4.45
2023-04-09T02:43:05.812Z,4.51
2023-04-09T02:44:05.797Z,4.50
2023-04-09T02:45:05.779Z,4.48
2023-04-09T02:46:05.775Z,4.41
2023-04-09T02:47:05.776Z,4.44
2023-04-09T02:48:06.129Z,4.41
2023-04-09T02:49:05.761Z,4.41
2023-04-09T02:50:05.728Z,4.42
2023-04-09T02:51:05.698Z,4.48
2023-04-09T02:52:05.683Z,4.48
2023-04-09T02:53:05.785Z,4.40
2023-04-09T02:54:05.697Z,4.44
2023-04-09T02:55:05.672Z,4.44
2023-04-09T02:56:05.665Z,4.34
2023-04-09T02:57:05.627Z,4.30
2023-04-09T02:58:05.624Z,4.47
2023-04-09T02:59:05.649Z,4.34
2023-04-09T03:00:05.635Z,4.29
2023-04-09T03:01:05.606Z,4.26
2023-04-09T03:02:05.706Z,4.27
2023-04-09T03:03:05.731Z,4.33
2023-04-09T03:04:05.630Z,4.37
2023-04-09T03:05:05.620Z,4.34
2023-04-09T03:06:05.558Z,4.24
2023-04-09T03:07:05.543Z,4.27
2023-04-09T03:08:05.539Z,4.27
2023-04-09T03:09:05.497Z,4.27
2023-04-09T03:10:05.486Z,4.36
2023-04-09T03:11:05.529Z,4.27
2023-04-09T03:12:05.490Z,4.29
2023-04-09T03:13:05.469Z,4.29
2023-04-09T03:14:05.439Z,4.32
2023-04-09T03:15:05.447Z,4.30
2023-04-09T03:16:05.476Z,4.29
2023-04-09T03:17:05.435Z,4.14
2023-04-09T03:18:05.544Z,4.18
2023-04-09T03:19:05.393Z,4.12
2023-04-09T03:20:05.390Z,4.06
2023-04-09T03:21:05.418Z,4.14
2023-04-09T03:22:05.367Z,4.12
2023-04-09T03:23:05.357Z,4.06
2023-04-09T03:24:05.342Z,4.05
2023-04-09T03:25:05.320Z,4.09
2023-04-09T03:26:05.308Z,4.12
2023-04-09T03:27:05.329Z,4.09
2023-04-09T03:28:05.315Z,4.11
2023-04-09T03:29:05.329Z,4.09
2023-04-09T03:30:05.268Z,4.20
2023-04-09T03:31:05.278Z,4.08
2023-04-09T03:32:05.244Z,4.11
2023-04-09T03:33:05.290Z,4.09
2023-04-09T03:34:05.239Z,4.11
2023-04-09T03:35:05.216Z,4.16
2023-04-09T03:36:05.289Z,4.08
2023-04-09T03:37:05.207Z,4.02
2023-04-09T03:38:05.176Z,3.93
2023-04-09T03:39:05.175Z,3.97
2023-04-09T03:40:05.170Z,3.94
2023-04-09T03:41:05.153Z,3.94
2023-04-09T03:42:05.168Z,3.90
2023-04-09T03:43:05.122Z,3.87
2023-04-09T03:44:05.107Z,3.83
2023-04-09T03:45:05.133Z,3.76
2023-04-09T03:46:05.148Z,3.84
2023-04-09T03:47:05.085Z,3.80
2023-04-09T03:48:05.134Z,3.78
2023-04-09T03:49:05.056Z,3.76
2023-04-09T03:50:05.070Z,3.75
2023-04-09T03:51:05.029Z,3.69
2023-04-09T03:52:05.025Z,3.72
2023-04-09T03:53:05.059Z,3.79
2023-04-09T03:54:05.058Z,3.73
2023-04-09T03:55:04.980Z,3.76
2023-04-09T03:56:04.973Z,3.75
2023-04-09T03:57:04.997Z,3.70
2023-04-09T03:58:04.976Z,3.75
2023-04-09T03:59:04.967Z,3.66
2023-04-09T04:00:04.983Z,3.65
2023-04-09T04:01:04.941Z,3.75
2023-04-09T04:02:05.044Z,3.75
2023-04-09T04:03:05.054Z,3.70
2023-04-09T04:04:05.072Z,3.66
2023-04-09T04:05:04.885Z,3.55
2023-04-09T04:06:04.887Z,3.65
2023-04-09T04:07:04.864Z,3.61
2023-04-09T04:08:04.840Z,3.60
2023-04-09T04:09:04.859Z,3.73
2023-04-09T04:10:04.849Z,3.65
2023-04-09T04:11:04.815Z,3.65
2023-04-09T04:12:04.829Z,3.57
2023-04-09T04:13:04.810Z,3.62
2023-04-09T04:14:04.774Z,3.62
2023-04-09T04:15:04.807Z,3.61
2023-04-09T04:16:04.781Z,3.55
2023-04-09T04:17:04.730Z,3.54
2023-04-09T04:18:04.758Z,3.57
2023-04-09T04:19:04.764Z,3.60
2023-04-09T04:20:04.714Z,3.51
2023-04-09T04:21:04.713Z,3.35
2023-04-09T04:22:04.683Z,3.36
2023-04-09T04:23:04.662Z,3.32
2023-04-09T04:24:04.694Z,3.32
2023-04-09T04:25:04.681Z,3.31
2023-04-09T04:26:04.676Z,3.24
2023-04-09T04:27:04.618Z,3.21
2023-04-09T04:28:04.613Z,3.21
2023-04-09T04:29:04.599Z,3.15
2023-04-09T04:30:04.633Z,3.14
2023-04-09T04:31:04.587Z,3.05
2023-04-09T04:32:04.690Z,2.97
2023-04-09T04:33:04.582Z,2.99
2023-04-09T04:34:04.546Z,3.00
2023-04-09T04:35:04.532Z,3.10
2023-04-09T04:36:04.571Z,3.10
2023-04-09T04:37:04.526Z,3.08
2023-04-09T04:38:04.527Z,2.93
2023-04-09T04:39:04.488Z,3.02
2023-04-09T04:40:04.562Z,2.92
2023-04-09T04:41:04.495Z,2.89
2023-04-09T04:42:04.497Z,2.93
2023-04-09T04:43:04.505Z,2.81
2023-04-09T04:44:04.432Z,2.89
2023-04-09T04:45:04.421Z,2.89
2023-04-09T04:46:04.455Z,2.95
2023-04-09T04:47:04.397Z,2.89
2023-04-09T04:48:04.429Z,2.97
2023-04-09T04:49:04.445Z,2.89
2023-04-09T04:50:04.368Z,2.95
2023-04-09T04:51:04.353Z,2.97
2023-04-09T04:52:04.353Z,2.97
2023-04-09T04:53:04.360Z,2.90
2023-04-09T04:54:04.334Z,2.92
2023-04-09T04:55:04.366Z,2.97
2023-04-09T04:56:04.306Z,2.97
2023-04-09T04:57:04.320Z,2.84
2023-04-09T04:58:04.306Z,2.89
2023-04-09T04:59:04.267Z,2.90
2023-04-09T05:00:04.288Z,2.78
2023-04-09T05:01:04.332Z,2.78
2023-04-09T05:02:04.294Z,2.67
2023-04-09T05:03:04.366Z,2.67
2023-04-09T05:04:04.360Z,2.71
2023-04-09T05:05:04.216Z,2.56
2023-04-09T05:06:04.225Z,2.59
2023-04-09T05:07:04.219Z,2.61
2023-04-09T05:08:04.167Z,2.49
2023-04-09T05:09:04.155Z,2.42
2023-04-09T05:10:04.192Z,2.43
2023-04-09T05:11:04.130Z,2.42
2023-04-09T05:12:04.120Z,2.48
2023-04-09T05:13:04.129Z,2.42
2023-04-09T05:14:04.158Z,2.45
2023-04-09T05:15:04.090Z,2.46
2023-04-09T05:16:04.108Z,2.54
2023-04-09T05:17:04.111Z,2.52
2023-04-09T05:18:04.048Z,2.52
2023-04-09T05:19:04.057Z,2.56
2023-04-09T05:20:04.061Z,2.45
2023-04-09T05:21:04.042Z,2.42
2023-04-09T05:22:04.031Z,2.38
2023-04-09T05:23:04.017Z,2.36
2023-04-09T05:24:03.984Z,2.35
2023-04-09T05:25:03.970Z,2.24
2023-04-09T05:26:04.051Z,2.31
2023-04-09T05:27:03.984Z,2.38
2023-04-09T05:28:03.958Z,2.39
2023-04-09T05:29:03.945Z,2.41
2023-04-09T05:30:03.915Z,2.45
2023-04-09T05:31:03.918Z,2.43
2023-04-09T05:32:03.984Z,2.52
2023-04-09T05:33:03.897Z,2.42
2023-04-09T05:34:03.882Z,2.52
2023-04-09T05:35:03.885Z,2.45
2023-04-09T05:36:03.905Z,2.49
2023-04-09T05:37:03.838Z,2.41
2023-04-09T05:38:03.891Z,2.42
2023-04-09T05:39:03.829Z,2.49
2023-04-09T05:40:03.821Z,2.43
2023-04-09T05:41:03.792Z,2.39
2023-04-09T05:42:03.797Z,2.42
2023-04-09T05:43:03.802Z,2.52
2023-04-09T05:44:03.860Z,2.43
2023-04-09T05:45:03.794Z,2.45
2023-04-09T05:46:03.786Z,2.48
2023-04-09T05:47:03.745Z,2.43
2023-04-09T05:48:03.802Z,2.46
2023-04-09T05:49:03.742Z,2.39
2023-04-09T05:50:03.746Z,2.43
2023-04-09T05:51:03.707Z,2.42
2023-04-09T05:52:03.688Z,2.53
2023-04-09T05:53:03.659Z,2.49
2023-04-09T05:54:03.657Z,2.53
2023-04-09T05:55:03.696Z,2.53
2023-04-09T05:56:03.699Z,2.52
2023-04-09T05:57:03.635Z,2.56
2023-04-09T05:58:03.611Z,2.60
2023-04-09T05:59:03.596Z,2.49
2023-04-09T06:00:03.621Z,2.64
2023-04-09T06:01:03.595Z,2.56
2023-04-09T06:02:03.738Z,2.57
2023-04-09T06:03:03.720Z,2.56
2023-04-09T06:04:04.029Z,2.60
2023-04-09T06:05:03.552Z,2.49
2023-04-09T06:06:03.544Z,2.53
2023-04-09T06:07:03.510Z,2.48
2023-04-09T06:08:03.541Z,2.41
2023-04-09T06:09:03.484Z,2.41
2023-04-09T06:10:03.485Z,2.46
2023-04-09T06:11:03.488Z,2.42
2023-04-09T06:12:03.459Z,2.48
2023-04-09T06:13:03.447Z,2.48
2023-04-09T06:14:03.496Z,2.52
2023-04-09T06:15:03.449Z,2.54
2023-04-09T06:16:03.427Z,2.42
2023-04-09T06:17:03.451Z,2.43
2023-04-09T06:18:03.420Z,2.42
2023-04-09T06:19:03.381Z,2.27
2023-04-09T06:20:03.414Z,2.31
2023-04-09T06:21:03.369Z,2.35
2023-04-09T06:22:03.344Z,2.31
2023-04-09T06:23:03.384Z,2.35
2023-04-09T06:24:03.322Z,2.39
2023-04-09T06:25:03.329Z,2.38
2023-04-09T06:26:03.378Z,2.45
2023-04-09T06:27:03.280Z,2.39
2023-04-09T06:28:03.300Z,2.45
2023-04-09T06:29:03.342Z,2.56
2023-04-09T06:30:03.271Z,2.48
2023-04-09T06:31:03.289Z,2.45
2023-04-09T06:32:03.423Z,2.45
2023-04-09T06:33:03.260Z,2.53
2023-04-09T06:34:03.214Z,2.49
2023-04-09T06:35:03.195Z,2.54
2023-04-09T06:36:03.214Z,2.56
2023-04-09T06:37:03.232Z,2.61
2023-04-09T06:38:03.178Z,2.59
2023-04-09T06:39:03.194Z,2.57
2023-04-09T06:40:03.145Z,2.67
2023-04-09T06:41:03.129Z,2.66
2023-04-09T06:42:03.123Z,2.71
2023-04-09T06:43:03.165Z,2.78
2023-04-09T06:44:03.091Z,2.81
2023-04-09T06:45:03.134Z,2.92
2023-04-09T06:46:03.135Z,3.02
2023-04-09T06:47:03.080Z,3.11
2023-04-09T06:48:03.111Z,3.11
2023-04-09T06:49:03.109Z,3.21
2023-04-09T06:50:03.036Z,3.39
2023-04-09T06:51:03.043Z,3.50
2023-04-09T06:52:03.114Z,3.51
2023-04-09T06:53:02.995Z,3.54
2023-04-09T06:54:03.095Z,3.68
2023-04-09T06:55:03.241Z,3.70
2023-04-09T06:56:02.955Z,3.86
2023-04-09T06:57:02.966Z,3.90
2023-04-09T06:58:02.953Z,4.05
2023-04-09T06:59:02.936Z,4.04
2023-04-09T07:00:02.913Z,4.05
2023-04-09T07:01:02.953Z,3.96
2023-04-09T07:02:02.955Z,3.93
2023-04-09T07:03:03.119Z,3.94
2023-04-09T07:04:02.973Z,3.91
2023-04-09T07:05:02.906Z,4.02
2023-04-09T07:06:02.851Z,4.04
2023-04-09T07:07:02.904Z,4.11
2023-04-09T07:08:02.824Z,4.05
2023-04-09T07:09:02.809Z,4.20
2023-04-09T07:10:02.828Z,4.34
2023-04-09T07:11:02.788Z,4.40
2023-04-09T07:12:02.798Z,4.37
2023-04-09T07:13:02.822Z,4.37
2023-04-09T07:14:02.767Z,4.34
2023-04-09T07:15:02.756Z,4.50
2023-04-09T07:16:02.780Z,4.50
2023-04-09T07:17:02.753Z,4.54
2023-04-09T07:18:02.810Z,4.59
2023-04-09T07:19:02.771Z,4.60
2023-04-09T07:20:02.703Z,4.65
2023-04-09T07:21:03.383Z,4.59
2023-04-09T07:22:02.696Z,4.59
2023-04-09T07:23:02.693Z,4.52
2023-04-09T07:24:02.644Z,4.50
2023-04-09T07:25:02.685Z,4.51
2023-04-09T07:26:02.623Z,4.47
2023-04-09T07:27:02.623Z,4.44
2023-04-09T07:28:02.632Z,4.48
2023-04-09T07:29:02.623Z,4.42
2023-04-09T07:30:02.591Z,4.50
2023-04-09T07:31:02.625Z,4.77
2023-04-09T07:32:02.557Z,5.12
2023-04-09T07:33:02.607Z,5.42
2023-04-09T07:34:02.593Z,5.61
2023-04-09T07:35:02.520Z,5.75
2023-04-09T07:36:02.579Z,5.83
2023-04-09T07:37:02.541Z,5.94
2023-04-09T07:38:02.514Z,5.82
2023-04-09T07:39:02.489Z,5.82
2023-04-09T07:40:02.513Z,5.96
2023-04-09T07:41:02.465Z,6.06
2023-04-09T07:42:02.444Z,6.27
2023-04-09T07:43:02.430Z,6.36
2023-04-09T07:44:02.461Z,6.51
2023-04-09T07:45:02.438Z,6.54
2023-04-09T07:46:02.413Z,6.38
2023-04-09T07:47:02.512Z,6.34
2023-04-09T07:48:02.778Z,6.15
2023-04-09T07:49:02.412Z,6.08
2023-04-09T07:50:02.585Z,6.12
2023-04-09T07:51:02.353Z,6.12
2023-04-09T07:52:02.354Z,6.19
2023-04-09T07:53:02.346Z,6.19
2023-04-09T07:54:02.345Z,6.14
2023-04-09T07:55:02.305Z,6.12
2023-04-09T07:56:02.330Z,6.01
2023-04-09T07:57:02.306Z,6.01
2023-04-09T07:58:02.264Z,5.96
2023-04-09T07:59:02.273Z,5.94
2023-04-09T08:00:02.253Z,5.94
2023-04-09T08:01:02.262Z,6.01
2023-04-09T08:02:02.287Z,6.11
2023-04-09T08:03:02.412Z,6.17
2023-04-09T08:04:02.512Z,6.18
2023-04-09T08:05:02.287Z,6.15
2023-04-09T08:06:02.206Z,6.28
2023-04-09T08:07:02.220Z,6.40
2023-04-09T08:08:02.178Z,6.40
2023-04-09T08:09:02.162Z,6.38
2023-04-09T08:10:02.162Z,6.34
2023-04-09T08:11:02.194Z,6.40
2023-04-09T08:12:02.139Z,6.40
2023-04-09T08:13:02.162Z,6.52
2023-04-09T08:14:02.101Z,6.55
2023-04-09T08:15:02.100Z,6.56
2023-04-09T08:16:02.137Z,6.59
2023-04-09T08:17:02.055Z,6.58
2023-04-09T08:18:02.171Z,6.55
2023-04-09T08:19:02.082Z,6.52
2023-04-09T08:20:02.053Z,6.51
2023-04-09T08:21:02.012Z,6.54
2023-04-09T08:22:02.085Z,6.48
2023-04-09T08:23:02.005Z,6.41
2023-04-09T08:24:01.999Z,6.43
2023-04-09T08:25:02.964Z,6.37
2023-04-09T08:26:01.959Z,6.43
2023-04-09T08:27:01.953Z,6.49
2023-04-09T08:28:01.967Z,6.41
2023-04-09T08:29:01.939Z,6.49
2023-04-09T08:30:01.973Z,6.49
2023-04-09T08:31:01.934Z,6.51
2023-04-09T08:32:01.934Z,6.49
2023-04-09T08:33:02.044Z,6.52
2023-04-09T08:34:01.930Z,6.51
2023-04-09T08:35:01.867Z,6.55
2023-04-09T08:36:03.328Z,6.67
2023-04-09T08:37:01.878Z,6.61
2023-04-09T08:38:01.830Z,6.71
2023-04-09T08:39:01.817Z,6.71
2023-04-09T08:40:01.811Z,6.76
2023-04-09T08:41:01.826Z,6.67
2023-04-09T08:42:01.829Z,6.84
2023-04-09T08:43:01.813Z,6.76
2023-04-09T08:44:01.751Z,6.84
2023-04-09T08:45:01.805Z,6.98
2023-04-09T08:46:01.775Z,6.91
2023-04-09T08:47:01.870Z,7.07
2023-04-09T08:48:01.869Z,7.12
2023-04-09T08:49:01.697Z,7.32
2023-04-09T08:50:01.769Z,7.34
2023-04-09T08:51:01.677Z,7.49
2023-04-09T08:52:01.678Z,7.52
2023-04-09T08:53:01.669Z,7.64
2023-04-09T08:54:04.288Z,7.72
2023-04-09T08:55:01.713Z,7.86
2023-04-09T08:56:01.660Z,7.82
2023-04-09T08:57:01.626Z,7.97
2023-04-09T08:58:01.605Z,8.02
2023-04-09T08:59:01.638Z,8.10
2023-04-09T09:00:01.577Z,8.23
2023-04-09T09:01:01.644Z,8.23
2023-04-09T09:02:01.743Z,8.33
2023-04-09T09:03:01.722Z,8.36
2023-04-09T09:04:01.598Z,8.36
2023-04-09T09:05:01.644Z,8.38
2023-04-09T09:06:01.508Z,8.47
2023-04-09T09:07:01.494Z,8.50
2023-04-09T09:08:01.492Z,8.65
2023-04-09T09:09:01.498Z,8.63
2023-04-09T09:10:01.481Z,8.62
2023-04-09T09:11:01.446Z,8.77
2023-04-09T09:12:09.123Z,8.79
2023-04-09T09:13:01.426Z,8.94
2023-04-09T09:14:01.416Z,8.95
2023-04-09T09:15:01.442Z,8.98
2023-04-09T09:16:01.391Z,9.04
2023-04-09T09:17:01.424Z,9.08
2023-04-09T09:18:01.415Z,9.14
2023-04-09T09:19:01.381Z,9.10
2023-04-09T09:20:01.411Z,8.95
2023-04-09T09:21:01.373Z,8.92
2023-04-09T09:22:01.335Z,8.98
2023-04-09T09:23:01.314Z,9.04
2023-04-09T09:24:01.340Z,9.14
2023-04-09T09:25:01.336Z,9.21
2023-04-09T09:26:01.293Z,9.21
2023-04-09T09:27:01.313Z,9.35
2023-04-09T09:28:01.272Z,9.31
2023-04-09T09:29:01.285Z,9.35
2023-04-09T09:30:01.267Z,9.26
2023-04-09T09:31:01.258Z,9.21
2023-04-09T09:32:01.274Z,9.23
2023-04-09T09:33:01.244Z,9.23
2023-04-09T09:34:01.190Z,9.18
2023-04-09T09:35:01.181Z,9.21
2023-04-09T09:36:01.221Z,9.24
2023-04-09T09:37:01.166Z,9.32
2023-04-09T09:38:01.159Z,9.38
2023-04-09T09:39:01.202Z,9.35
2023-04-09T09:40:01.149Z,9.40
2023-04-09T09:41:01.140Z,9.39
2023-04-09T09:42:01.106Z,9.47
2023-04-09T09:43:01.131Z,9.53
2023-04-09T09:44:01.101Z,9.43
2023-04-09T09:45:01.145Z,9.48
2023-04-09T09:46:01.075Z,9.56
2023-04-09T09:47:01.090Z,9.53
2023-04-09T09:48:01.070Z,9.65
2023-04-09T09:49:01.038Z,9.64
2023-04-09T09:50:01.013Z,9.61
2023-04-09T09:51:01.016Z,9.71
2023-04-09T09:52:00.997Z,9.64
2023-04-09T09:53:01.007Z,9.69
2023-04-09T09:54:00.981Z,9.54
2023-04-09T09:55:00.987Z,9.53
2023-04-09T09:56:00.947Z,9.58
2023-04-09T09:57:00.991Z,9.64
2023-04-09T09:58:00.971Z,9.69
2023-04-09T09:59:00.953Z,9.71
2023-04-09T10:00:00.955Z,9.68
2023-04-09T10:01:00.928Z,9.76
2023-04-09T10:02:01.095Z,9.65
2023-04-09T10:03:01.006Z,9.78
2023-04-09T10:04:00.886Z,9.74
2023-04-09T10:05:00.896Z,9.86
2023-04-09T10:06:00.856Z,9.91
2023-04-09T10:07:00.875Z,9.94
2023-04-09T10:08:00.813Z,9.89
2023-04-09T10:09:00.836Z,9.89
2023-04-09T10:10:00.796Z,9.91
2023-04-09T10:11:00.793Z,9.87
2023-04-09T10:12:00.805Z,9.93
2023-04-09T10:13:00.761Z,9.90
2023-04-09T10:14:00.764Z,9.91
2023-04-09T10:15:00.832Z,9.91
2023-04-09T10:16:00.789Z,9.75
2023-04-09T10:17:00.729Z,9.83
2023-04-09T10:18:00.734Z,9.81
2023-04-09T10:19:00.689Z,9.97
2023-04-09T10:20:00.707Z,9.91
2023-04-09T10:21:00.797Z,10.05
2023-04-09T10:22:00.660Z,10.05
2023-04-09T10:23:00.667Z,10.09
2023-04-09T10:24:00.634Z,10.08
2023-04-09T10:25:00.668Z,10.07
2023-04-09T10:26:00.612Z,10.17
2023-04-09T10:27:00.615Z,10.11
2023-04-09T10:28:00.622Z,10.15
2023-04-09T10:29:00.592Z,10.25
2023-04-09T10:30:00.605Z,10.23
2023-04-09T10:31:00.768Z,10.17
2023-04-09T10:32:00.574Z,10.08
2023-04-09T10:33:00.581Z,10.04
2023-04-09T10:34:00.553Z,10.05
2023-04-09T10:35:00.550Z,10.05
2023-04-09T10:36:00.558Z,10.08
2023-04-09T10:37:00.488Z,10.09
2023-04-09T10:38:00.484Z,10.09
2023-04-09T10:39:00.473Z,10.09
2023-04-09T10:40:00.556Z,10.22
2023-04-09T10:41:00.444Z,10.22
2023-04-09T10:42:00.440Z,10.27
2023-04-09T10:43:00.430Z,10.26
2023-04-09T10:44:00.435Z,10.25
2023-04-09T10:45:00.451Z,10.23
2023-04-09T10:46:00.445Z,10.29
2023-04-09T10:47:00.429Z,10.36
2023-04-09T10:48:00.435Z,10.34
2023-04-09T10:49:00.359Z,10.34
2023-04-09T10:50:00.347Z,10.29
2023-04-09T10:51:00.351Z,10.26
2023-04-09T10:52:00.359Z,10.29
2023-04-09T10:53:00.385Z,10.15
2023-04-09T10:54:00.300Z,10.22
2023-04-09T10:55:00.302Z,10.18
2023-04-09T10:56:00.305Z,10.27
2023-04-09T10:57:00.277Z,10.38
2023-04-09T10:58:00.292Z,10.41
2023-04-09T10:59:00.246Z,10.45
2023-04-09T11:00:00.236Z,10.47
2023-04-09T11:01:00.256Z,10.48
2023-04-09T11:02:00.897Z,10.42
2023-04-09T11:03:00.366Z,10.44
2023-04-09T11:04:00.332Z,10.42
2023-04-09T11:05:00.401Z,10.36
2023-04-09T11:06:00.184Z,10.33
2023-04-09T11:07:00.159Z,10.30
2023-04-09T11:08:00.195Z,10.44
2023-04-09T11:09:00.166Z,10.29
2023-04-09T11:10:00.175Z,10.36
2023-04-09T11:11:00.172Z,10.25
2023-04-09T11:12:00.110Z,10.29
2023-04-09T11:13:00.096Z,10.51
2023-04-09T11:14:00.141Z,10.53
2023-04-09T11:15:00.073Z,10.55
2023-04-09T11:16:00.148Z,10.68
2023-04-09T11:17:00.043Z,10.81
2023-04-09T11:18:00.179Z,10.74
2023-04-09T11:19:00.057Z,10.82
2023-04-09T11:20:00.062Z,10.79
2023-04-09T11:21:00.026Z,10.82
2023-04-09T11:21:59.987Z,10.78
2023-04-09T11:23:00.040Z,10.67
2023-04-09T11:23:59.960Z,10.68
2023-04-09T11:24:59.963Z,10.82
2023-04-09T11:25:59.961Z,10.82
2023-04-09T11:26:59.967Z,10.86
2023-04-09T11:27:59.916Z,10.85
2023-04-09T11:28:59.944Z,10.76
2023-04-09T11:29:59.898Z,10.81
2023-04-09T11:30:59.916Z,10.78
2023-04-09T11:31:59.932Z,10.81
2023-04-09T11:32:59.971Z,10.81
2023-04-09T11:33:59.849Z,10.84
2023-04-09T11:34:59.876Z,10.81
2023-04-09T11:35:59.908Z,10.71
2023-04-09T11:36:59.862Z,10.81
2023-04-09T11:37:59.843Z,10.84
2023-04-09T11:38:59.847Z,10.89
2023-04-09T11:39:59.784Z,10.85
2023-04-09T11:40:59.780Z,10.84
2023-04-09T11:41:59.779Z,10.88
2023-04-09T11:42:59.752Z,10.92
2023-04-09T11:43:59.779Z,10.81
2023-04-09T11:44:59.748Z,10.88
2023-04-09T11:45:59.739Z,11.02
2023-04-09T11:46:59.759Z,11.02
2023-04-09T11:47:59.762Z,11.09
2023-04-09T11:48:59.722Z,11.17
2023-04-09T11:49:59.669Z,11.25
2023-04-09T11:50:59.691Z,11.18
2023-04-09T11:51:59.680Z,11.21
2023-04-09T11:52:59.646Z,11.21
2023-04-09T11:53:59.654Z,11.11
2023-04-09T11:54:59.616Z,10.97
2023-04-09T11:55:59.622Z,11.02
2023-04-09T11:56:59.685Z,10.99
2023-04-09T11:57:59.595Z,11.04
2023-04-09T11:58:59.607Z,11.09
2023-04-09T11:59:59.579Z,11.00
2023-04-09T12:00:59.549Z,11.14
2023-04-09T12:01:59.617Z,11.19
2023-04-09T12:02:59.737Z,11.18
2023-04-09T12:03:59.683Z,11.19
2023-04-09T12:04:59.561Z,11.21
2023-04-09T12:05:59.533Z,11.22
2023-04-09T12:06:59.497Z,11.17
2023-04-09T12:07:59.489Z,11.15
2023-04-09T12:08:59.489Z,11.28
2023-04-09T12:09:59.457Z,11.21
2023-04-09T12:10:59.463Z,11.24
2023-04-09T12:11:59.475Z,11.27
2023-04-09T12:12:59.416Z,11.35
2023-04-09T12:13:59.411Z,11.33
2023-04-09T12:14:59.419Z,11.35
2023-04-09T12:15:59.396Z,11.39
2023-04-09T12:16:59.460Z,11.40
2023-04-09T12:17:59.496Z,11.39
2023-04-09T12:18:59.371Z,11.39
2023-04-09T12:19:59.369Z,11.51
2023-04-09T12:20:59.364Z,11.44
2023-04-09T12:21:59.324Z,11.42
2023-04-09T12:22:59.354Z,11.36
2023-04-09T12:23:59.343Z,11.37
2023-04-09T12:24:59.283Z,11.44
2023-04-09T12:25:59.294Z,11.39
2023-04-09T12:26:59.297Z,11.29
2023-04-09T12:27:59.264Z,11.10
2023-04-09T12:28:59.242Z,11.06
2023-04-09T12:29:59.253Z,10.94
2023-04-09T12:30:59.256Z,11.15
2023-04-09T12:31:59.252Z,11.14
2023-04-09T12:32:59.245Z,11.14
2023-04-09T12:33:59.204Z,11.11
2023-04-09T12:34:59.171Z,11.21
2023-04-09T12:35:59.258Z,11.22
2023-04-09T12:36:59.172Z,11.18
2023-04-09T12:37:59.146Z,11.11
2023-04-09T12:38:59.167Z,11.17
2023-04-09T12:39:59.145Z,11.03
2023-04-09T12:40:59.109Z,10.97
2023-04-09T12:41:59.120Z,10.94
2023-04-09T12:42:59.111Z,10.86
2023-04-09T12:43:59.077Z,10.84
2023-04-09T12:44:59.125Z,10.82
2023-04-09T12:45:59.099Z,10.85
2023-04-09T12:46:59.036Z,10.91
2023-04-09T12:47:59.060Z,10.85
2023-04-09T12:48:59.042Z,10.96
2023-04-09T12:49:59.017Z,11.00
2023-04-09T12:50:59.039Z,11.04
2023-04-09T12:51:58.986Z,11.00
2023-04-09T12:52:58.993Z,10.99
2023-04-09T12:53:58.973Z,11.11
2023-04-09T12:54:58.947Z,11.10
2023-04-09T12:55:58.974Z,11.07
2023-04-09T12:56:59.004Z,11.09
2023-04-09T12:57:58.919Z,10.97
2023-04-09T12:58:58.906Z,11.00
2023-04-09T12:59:58.909Z,11.02
2023-04-09T13:00:58.913Z,11.04
2023-04-09T13:01:58.961Z,11.10
2023-04-09T13:02:59.109Z,11.10
2023-04-09T13:03:59.181Z,11.21
2023-04-09T13:04:58.837Z,11.19
2023-04-09T13:05:58.862Z,11.28
2023-04-09T13:06:58.828Z,11.28
2023-04-09T13:07:58.835Z,11.33
2023-04-09T13:08:58.853Z,11.29
2023-04-09T13:09:58.792Z,11.42
2023-04-09T13:10:58.806Z,11.36
2023-04-09T13:11:58.820Z,11.43